Brezno, Slovakia
Current Conditions -  °F | °C
As of 3:00 PM on Thursday 23 Oct 2014 (Local Time) from LZSL Reporting Station
Light Rain Light Rain  
Wind Chill: 52°   Ceiling: 7700
Heat Index: 52°   Visibility: 6mi
Dew Point: 45°   Wind: 7mph
Humidity: 76%   Direction: 30°NNE
Pressure: 29.77"   Gusts: NA
Location:  48.81°N, 19.64°E
Report Text: LZSL 231300Z 03006KT 9999 -RA FEW039 BKN077 11/07 Q1008
Loading
Personal Weather Stations






























Interactive Weather Map
Tropical Storm Tracking
New forecast layout! Learn more

10-Day Weather Forecast

Advertisements
Track Severe Weather on mobile